sensor_id;sensor_type;location;lat;lon;timestamp;pressure;altitude;pressure_sealevel;temperature;humidity
38452;BME280;24231;52.514;13.438;2023-05-19T00:02:15;102246.45;;;12.49;44.09
38452;BME280;24231;52.514;13.438;2023-05-19T00:04:42;102247.02;;;13.00;44.03
38452;BME280;24231;52.514;13.438;2023-05-19T00:07:10;102245.20;;;13.62;42.55
38452;BME280;24231;52.514;13.438;2023-05-19T00:09:37;102257.53;;;12.85;43.44
38452;BME280;24231;52.514;13.438;2023-05-19T00:12:05;102256.34;;;11.74;45.86
38452;BME280;24231;52.514;13.438;2023-05-19T00:14:33;102257.61;;;13.01;43.51
38452;BME280;24231;52.514;13.438;2023-05-19T00:17:02;102261.11;;;10.91;48.21
38452;BME280;24231;52.514;13.438;2023-05-19T00:19:29;102254.48;;;11.95;45.91
38452;BME280;24231;52.514;13.438;2023-05-19T00:21:56;102254.74;;;11.48;47.13
38452;BME280;24231;52.514;13.438;2023-05-19T00:24:23;102255.46;;;12.40;44.88
38452;BME280;24231;52.514;13.438;2023-05-19T00:26:51;102254.15;;;11.63;46.41
38452;BME280;24231;52.514;13.438;2023-05-19T00:29:18;102253.19;;;12.52;44.51
38452;BME280;24231;52.514;13.438;2023-05-19T00:31:45;102244.36;;;13.70;41.71
38452;BME280;24231;52.514;13.438;2023-05-19T00:34:12;102251.05;;;11.26;47.37
38452;BME280;24231;52.514;13.438;2023-05-19T00:36:39;102248.72;;;12.40;44.67
38452;BME280;24231;52.514;13.438;2023-05-19T00:39:07;102245.49;;;12.39;44.00
38452;BME280;24231;52.514;13.438;2023-05-19T00:41:34;102248.55;;;12.75;43.13
38452;BME280;24231;52.514;13.438;2023-05-19T00:44:01;102250.23;;;11.10;46.76
38452;BME280;24231;52.514;13.438;2023-05-19T00:46:29;102250.27;;;11.81;45.87
38452;BME280;24231;52.514;13.438;2023-05-19T00:48:56;102247.14;;;12.24;44.68
38452;BME280;24231;52.514;13.438;2023-05-19T00:51:25;102250.76;;;12.58;44.01
38452;BME280;24231;52.514;13.438;2023-05-19T00:53:53;102242.18;;;13.88;41.40
38452;BME280;24231;52.514;13.438;2023-05-19T00:56:21;102248.46;;;12.86;42.98
38452;BME280;24231;52.514;13.438;2023-05-19T00:58:50;102248.93;;;12.02;44.80
38452;BME280;24231;52.514;13.438;2023-05-19T01:01:18;102249.66;;;12.55;43.78
38452;BME280;24231;52.514;13.438;2023-05-19T01:03:45;102254.79;;;11.37;46.50
38452;BME280;24231;52.514;13.438;2023-05-19T01:06:14;102252.15;;;11.49;46.34
38452;BME280;24231;52.514;13.438;2023-05-19T01:08:41;102252.85;;;11.79;45.26
38452;BME280;24231;52.514;13.438;2023-05-19T01:11:08;102250.85;;;11.50;45.95
38452;BME280;24231;52.514;13.438;2023-05-19T01:13:36;102249.16;;;12.27;44.68
38452;BME280;24231;52.514;13.438;2023-05-19T01:16:08;102246.94;;;11.94;45.25
38452;BME280;24231;52.514;13.438;2023-05-19T01:18:43;102244.62;;;11.57;45.52
38452;BME280;24231;52.514;13.438;2023-05-19T01:21:34;102243.63;;;12.90;42.98
38452;BME280;24231;52.514;13.438;2023-05-19T01:24:18;102242.21;;;11.85;44.46
38452;BME280;24231;52.514;13.438;2023-05-19T01:27:08;102240.91;;;11.73;45.19
38452;BME280;24231;52.514;13.438;2023-05-19T01:29:49;102241.25;;;12.31;44.14
38452;BME280;24231;52.514;13.438;2023-05-19T01:32:23;102244.30;;;11.79;44.98
38452;BME280;24231;52.514;13.438;2023-05-19T01:34:53;102246.34;;;12.59;43.52
38452;BME280;24231;52.514;13.438;2023-05-19T01:37:23;102248.28;;;12.77;43.22
38452;BME280;24231;52.514;13.438;2023-05-19T01:39:52;102240.57;;;13.29;41.69
38452;BME280;24231;52.514;13.438;2023-05-19T01:42:20;102240.12;;;13.92;40.84
38452;BME280;24231;52.514;13.438;2023-05-19T01:44:48;102242.14;;;14.34;40.18
38452;BME280;24231;52.514;13.438;2023-05-19T01:47:15;102240.64;;;14.41;39.66
38452;BME280;24231;52.514;13.438;2023-05-19T01:49:43;102241.68;;;14.14;39.78
38452;BME280;24231;52.514;13.438;2023-05-19T01:52:10;102243.52;;;13.85;40.57
38452;BME280;24231;52.514;13.438;2023-05-19T01:54:37;102241.35;;;14.23;40.13
38452;BME280;24231;52.514;13.438;2023-05-19T01:57:14;102246.08;;;14.26;40.01
38452;BME280;24231;52.514;13.438;2023-05-19T01:59:51;102244.17;;;13.84;40.43
38452;BME280;24231;52.514;13.438;2023-05-19T02:02:33;102242.53;;;14.17;39.70
38452;BME280;24231;52.514;13.438;2023-05-19T02:05:07;102240.96;;;14.48;39.48
38452;BME280;24231;52.514;13.438;2023-05-19T02:07:43;102241.13;;;13.88;40.17
38452;BME280;24231;52.514;13.438;2023-05-19T02:10:14;102245.10;;;14.01;40.14
38452;BME280;24231;52.514;13.438;2023-05-19T02:12:45;102245.21;;;14.24;39.69
38452;BME280;24231;52.514;13.438;2023-05-19T02:15:15;102245.26;;;14.34;39.64
38452;BME280;24231;52.514;13.438;2023-05-19T02:17:44;102241.56;;;14.00;40.36
38452;BME280;24231;52.514;13.438;2023-05-19T02:20:12;102239.85;;;14.12;40.21
38452;BME280;24231;52.514;13.438;2023-05-19T02:22:39;102241.84;;;14.01;40.28
38452;BME280;24231;52.514;13.438;2023-05-19T02:25:07;102246.56;;;13.07;41.65
38452;BME280;24231;52.514;13.438;2023-05-19T02:27:36;102241.89;;;13.83;40.71
38452;BME280;24231;52.514;13.438;2023-05-19T02:30:04;102250.66;;;12.98;42.28
38452;BME280;24231;52.514;13.438;2023-05-19T02:32:32;102246.89;;;13.61;41.09
38452;BME280;24231;52.514;13.438;2023-05-19T02:34:59;102247.67;;;13.40;41.45
38452;BME280;24231;52.514;13.438;2023-05-19T02:37:26;102244.87;;;13.60;41.59
38452;BME280;24231;52.514;13.438;2023-05-19T02:39:54;102237.97;;;13.57;41.28
38452;BME280;24231;52.514;13.438;2023-05-19T02:42:21;102233.60;;;14.05;40.38
38452;BME280;24231;52.514;13.438;2023-05-19T02:44:48;102231.10;;;14.11;40.36
38452;BME280;24231;52.514;13.438;2023-05-19T02:47:15;102229.79;;;13.77;40.80
38452;BME280;24231;52.514;13.438;2023-05-19T02:49:43;102231.99;;;13.96;40.61
38452;BME280;24231;52.514;13.438;2023-05-19T02:52:10;102234.22;;;13.95;40.61
38452;BME280;24231;52.514;13.438;2023-05-19T02:54:37;102236.35;;;13.93;40.76
38452;BME280;24231;52.514;13.438;2023-05-19T02:57:05;102241.03;;;12.60;42.83
38452;BME280;24231;52.514;13.438;2023-05-19T02:59:32;102232.54;;;13.70;40.99
38452;BME280;24231;52.514;13.438;2023-05-19T03:02:01;102232.03;;;13.77;41.14
38452;BME280;24231;52.514;13.438;2023-05-19T03:04:29;102232.88;;;14.27;40.19
38452;BME280;24231;52.514;13.438;2023-05-19T03:06:56;102234.09;;;14.16;40.05
38452;BME280;24231;52.514;13.438;2023-05-19T03:09:23;102230.42;;;14.15;40.03
38452;BME280;24231;52.514;13.438;2023-05-19T03:11:50;102225.31;;;14.25;39.64
38452;BME280;24231;52.514;13.438;2023-05-19T03:14:18;102225.14;;;14.27;40.01
38452;BME280;24231;52.514;13.438;2023-05-19T03:16:45;102223.72;;;14.28;39.74
38452;BME280;24231;52.514;13.438;2023-05-19T03:19:13;102223.54;;;13.70;40.74
38452;BME280;24231;52.514;13.438;2023-05-19T03:21:40;102225.66;;;14.12;40.25
38452;BME280;24231;52.514;13.438;2023-05-19T03:24:07;102223.80;;;14.12;40.16
38452;BME280;24231;52.514;13.438;2023-05-19T03:26:35;102226.42;;;14.12;40.12
38452;BME280;24231;52.514;13.438;2023-05-19T03:29:02;102228.23;;;14.15;40.13
38452;BME280;24231;52.514;13.438;2023-05-19T03:31:30;102229.26;;;13.97;40.39
38452;BME280;24231;52.514;13.438;2023-05-19T03:33:57;102230.11;;;13.74;40.89
38452;BME280;24231;52.514;13.438;2023-05-19T03:36:24;102225.73;;;13.46;41.19
38452;BME280;24231;52.514;13.438;2023-05-19T03:38:50;102226.98;;;14.18;40.13
38452;BME280;24231;52.514;13.438;2023-05-19T03:41:18;102226.19;;;14.26;39.97
38452;BME280;24231;52.514;13.438;2023-05-19T03:43:45;102225.55;;;14.48;39.71
38452;BME280;24231;52.514;13.438;2023-05-19T03:46:12;102237.31;;;12.68;42.77
38452;BME280;24231;52.514;13.438;2023-05-19T03:48:40;102237.97;;;10.70;47.51
38452;BME280;24231;52.514;13.438;2023-05-19T03:51:07;102232.66;;;12.23;44.92
38452;BME280;24231;52.514;13.438;2023-05-19T03:53:35;102229.78;;;12.32;44.30
38452;BME280;24231;52.514;13.438;2023-05-19T03:56:02;102223.70;;;13.30;42.27
38452;BME280;24231;52.514;13.438;2023-05-19T03:58:29;102226.78;;;13.80;41.43
38452;BME280;24231;52.514;13.438;2023-05-19T04:00:56;102232.95;;;12.03;44.59
38452;BME280;24231;52.514;13.438;2023-05-19T04:03:24;102234.79;;;11.31;46.94
38452;BME280;24231;52.514;13.438;2023-05-19T04:05:51;102234.48;;;12.23;44.64
38452;BME280;24231;52.514;13.438;2023-05-19T04:08:18;102227.35;;;13.90;41.58
38452;BME280;24231;52.514;13.438;2023-05-19T04:10:46;102233.08;;;11.48;46.30
38452;BME280;24231;52.514;13.438;2023-05-19T04:13:13;102236.16;;;12.37;44.67
38452;BME280;24231;52.514;13.438;2023-05-19T04:15:40;102242.07;;;10.75;49.36
38452;BME280;24231;52.514;13.438;2023-05-19T04:18:07;102236.14;;;11.30;48.55
38452;BME280;24231;52.514;13.438;2023-05-19T04:20:34;102238.29;;;10.97;49.32
38452;BME280;24231;52.514;13.438;2023-05-19T04:23:01;102237.53;;;10.93;49.89
38452;BME280;24231;52.514;13.438;2023-05-19T04:25:29;102240.14;;;10.54;50.51
38452;BME280;24231;52.514;13.438;2023-05-19T04:27:56;102243.17;;;10.34;51.88
38452;BME280;24231;52.514;13.438;2023-05-19T04:30:23;102246.20;;;10.22;52.52
38452;BME280;24231;52.514;13.438;2023-05-19T04:32:51;102249.14;;;10.33;52.16
38452;BME280;24231;52.514;13.438;2023-05-19T04:35:18;102249.74;;;10.99;50.42
38452;BME280;24231;52.514;13.438;2023-05-19T04:37:45;102250.51;;;10.99;50.59
38452;BME280;24231;52.514;13.438;2023-05-19T04:40:12;102250.63;;;10.68;51.28
38452;BME280;24231;52.514;13.438;2023-05-19T04:42:40;102248.21;;;11.38;49.02
38452;BME280;24231;52.514;13.438;2023-05-19T04:45:08;102248.43;;;11.77;48.84
38452;BME280;24231;52.514;13.438;2023-05-19T04:47:35;102245.82;;;12.40;46.68
38452;BME280;24231;52.514;13.438;2023-05-19T04:50:03;102251.40;;;11.98;47.50
38452;BME280;24231;52.514;13.438;2023-05-19T04:52:30;102250.82;;;12.15;47.40
38452;BME280;24231;52.514;13.438;2023-05-19T04:54:57;102245.16;;;13.98;43.41
38452;BME280;24231;52.514;13.438;2023-05-19T04:57:24;102248.45;;;13.89;42.90
38452;BME280;24231;52.514;13.438;2023-05-19T04:59:52;102257.65;;;12.27;45.35
38452;BME280;24231;52.514;13.438;2023-05-19T05:02:19;102252.92;;;12.33;46.27
38452;BME280;24231;52.514;13.438;2023-05-19T05:04:46;102250.29;;;12.27;47.26
38452;BME280;24231;52.514;13.438;2023-05-19T05:07:13;102245.31;;;12.44;46.95
38452;BME280;24231;52.514;13.438;2023-05-19T05:09:40;102237.23;;;13.80;43.92
38452;BME280;24231;52.514;13.438;2023-05-19T05:12:09;102242.68;;;13.15;45.11
38452;BME280;24231;52.514;13.438;2023-05-19T05:14:38;102244.62;;;12.32;46.58
38452;BME280;24231;52.514;13.438;2023-05-19T05:17:06;102246.69;;;12.45;47.30
38452;BME280;24231;52.514;13.438;2023-05-19T05:19:34;102250.97;;;12.48;47.37
38452;BME280;24231;52.514;13.438;2023-05-19T05:22:02;102252.30;;;12.05;48.59
38452;BME280;24231;52.514;13.438;2023-05-19T05:24:30;102253.12;;;12.86;46.58
38452;BME280;24231;52.514;13.438;2023-05-19T05:26:57;102244.49;;;13.39;45.18
38452;BME280;24231;52.514;13.438;2023-05-19T05:29:25;102250.08;;;11.99;47.76
38452;BME280;24231;52.514;13.438;2023-05-19T05:31:52;102253.61;;;12.43;47.15
38452;BME280;24231;52.514;13.438;2023-05-19T05:34:19;102246.99;;;13.95;43.94
38452;BME280;24231;52.514;13.438;2023-05-19T05:36:46;102252.41;;;11.69;49.10
38452;BME280;24231;52.514;13.438;2023-05-19T05:39:13;102253.88;;;12.01;48.65
38452;BME280;24231;52.514;13.438;2023-05-19T05:41:41;102251.56;;;12.44;48.38
38452;BME280;24231;52.514;13.438;2023-05-19T05:44:08;102250.42;;;12.33;47.65
38452;BME280;24231;52.514;13.438;2023-05-19T05:46:36;102253.37;;;11.77;49.61
38452;BME280;24231;52.514;13.438;2023-05-19T05:49:03;102246.58;;;13.30;46.10
38452;BME280;24231;52.514;13.438;2023-05-19T05:51:31;102253.40;;;12.66;47.14
38452;BME280;24231;52.514;13.438;2023-05-19T05:53:59;102253.07;;;12.35;48.97
38452;BME280;24231;52.514;13.438;2023-05-19T05:56:28;102248.18;;;13.13;46.43
38452;BME280;24231;52.514;13.438;2023-05-19T05:58:56;102253.49;;;12.71;47.97
38452;BME280;24231;52.514;13.438;2023-05-19T06:01:23;102253.51;;;12.76;47.57
38452;BME280;24231;52.514;13.438;2023-05-19T06:03:49;102253.89;;;12.80;48.08
38452;BME280;24231;52.514;13.438;2023-05-19T06:06:16;102249.19;;;13.26;46.27
38452;BME280;24231;52.514;13.438;2023-05-19T06:08:44;102244.52;;;13.33;46.54
38452;BME280;24231;52.514;13.438;2023-05-19T06:11:11;102245.97;;;14.12;44.22
38452;BME280;24231;52.514;13.438;2023-05-19T06:13:38;102246.90;;;13.64;45.93
38452;BME280;24231;52.514;13.438;2023-05-19T06:16:05;102246.42;;;13.87;45.01
38452;BME280;24231;52.514;13.438;2023-05-19T06:18:33;102246.45;;;14.38;44.16
38452;BME280;24231;52.514;13.438;2023-05-19T06:21:00;102247.19;;;14.70;43.39
38452;BME280;24231;52.514;13.438;2023-05-19T06:23:28;102242.72;;;15.06;42.56
38452;BME280;24231;52.514;13.438;2023-05-19T06:25:56;102241.49;;;16.73;39.16
38452;BME280;24231;52.514;13.438;2023-05-19T06:28:23;102240.12;;;16.01;40.43
38452;BME280;24231;52.514;13.438;2023-05-19T06:30:50;102236.10;;;18.42;36.21
38452;BME280;24231;52.514;13.438;2023-05-19T06:33:17;102239.99;;;16.98;38.07
38452;BME280;24231;52.514;13.438;2023-05-19T06:35:44;102233.23;;;17.80;36.56
38452;BME280;24231;52.514;13.438;2023-05-19T06:38:11;102235.69;;;17.56;37.04
38452;BME280;24231;52.514;13.438;2023-05-19T06:40:39;102242.96;;;16.45;39.22
38452;BME280;24231;52.514;13.438;2023-05-19T06:43:06;102235.86;;;18.78;35.63
38452;BME280;24231;52.514;13.438;2023-05-19T06:45:33;102237.10;;;18.92;35.16
38452;BME280;24231;52.514;13.438;2023-05-19T06:48:00;102236.34;;;17.77;36.82
38452;BME280;24231;52.514;13.438;2023-05-19T06:50:27;102241.20;;;16.60;38.94
38452;BME280;24231;52.514;13.438;2023-05-19T06:52:55;102239.31;;;16.91;38.82
38452;BME280;24231;52.514;13.438;2023-05-19T06:55:22;102235.06;;;18.05;36.83
38452;BME280;24231;52.514;13.438;2023-05-19T06:57:49;102235.49;;;19.08;35.44
38452;BME280;24231;52.514;13.438;2023-05-19T07:00:16;102239.04;;;18.51;35.97
38452;BME280;24231;52.514;13.438;2023-05-19T07:02:43;102236.60;;;19.80;34.25
38452;BME280;24231;52.514;13.438;2023-05-19T07:05:10;102239.83;;;17.85;36.45
38452;BME280;24231;52.514;13.438;2023-05-19T07:07:37;102229.29;;;19.52;34.08
38452;BME280;24231;52.514;13.438;2023-05-19T07:10:05;102230.95;;;20.51;32.71
38452;BME280;24231;52.514;13.438;2023-05-19T07:12:32;102231.12;;;20.83;31.99
38452;BME280;24231;52.514;13.438;2023-05-19T07:14:59;102230.96;;;20.57;32.42
38452;BME280;24231;52.514;13.438;2023-05-19T07:17:26;102226.04;;;22.00;31.19
38452;BME280;24231;52.514;13.438;2023-05-19T07:19:53;102235.47;;;20.38;32.86
38452;BME280;24231;52.514;13.438;2023-05-19T07:22:20;102228.04;;;21.93;31.23
38452;BME280;24231;52.514;13.438;2023-05-19T07:24:47;102234.83;;;21.22;31.84
38452;BME280;24231;52.514;13.438;2023-05-19T07:27:14;102236.88;;;21.17;31.91
38452;BME280;24231;52.514;13.438;2023-05-19T07:29:41;102231.98;;;21.45;30.99
38452;BME280;24231;52.514;13.438;2023-05-19T07:32:08;102233.07;;;21.77;30.40
38452;BME280;24231;52.514;13.438;2023-05-19T07:34:36;102237.83;;;19.19;34.34
38452;BME280;24231;52.514;13.438;2023-05-19T07:37:03;102237.65;;;18.76;35.51
38452;BME280;24231;52.514;13.438;2023-05-19T07:39:32;102231.01;;;19.99;34.05
38452;BME280;24231;52.514;13.438;2023-05-19T07:41:59;102223.44;;;22.09;31.53
38452;BME280;24231;52.514;13.438;2023-05-19T07:44:27;102231.05;;;18.75;35.12
38452;BME280;24231;52.514;13.438;2023-05-19T07:46:54;102226.91;;;19.39;34.85
38452;BME280;24231;52.514;13.438;2023-05-19T07:49:21;102224.88;;;18.30;36.28
38452;BME280;24231;52.514;13.438;2023-05-19T07:51:48;102225.70;;;18.56;36.16
38452;BME280;24231;52.514;13.438;2023-05-19T07:54:15;102222.95;;;20.22;34.55
38452;BME280;24231;52.514;13.438;2023-05-19T07:56:42;102221.08;;;19.39;34.94
38452;BME280;24231;52.514;13.438;2023-05-19T07:59:09;102218.34;;;20.25;33.63
38452;BME280;24231;52.514;13.438;2023-05-19T08:01:36;102224.08;;;20.70;32.69
38452;BME280;24231;52.514;13.438;2023-05-19T08:04:04;102217.22;;;21.45;31.92
38452;BME280;24231;52.514;13.438;2023-05-19T08:06:31;102219.76;;;20.31;33.65
38452;BME280;24231;52.514;13.438;2023-05-19T08:08:58;102209.92;;;22.45;30.94
38452;BME280;24231;52.514;13.438;2023-05-19T08:11:25;102216.30;;;21.89;30.78
38452;BME280;24231;52.514;13.438;2023-05-19T08:13:52;102211.59;;;22.03;31.08
38452;BME280;24231;52.514;13.438;2023-05-19T08:16:19;102203.51;;;23.69;29.24
38452;BME280;24231;52.514;13.438;2023-05-19T08:18:46;102215.76;;;20.08;33.39
38452;BME280;24231;52.514;13.438;2023-05-19T08:21:13;102210.82;;;22.95;30.26
38452;BME280;24231;52.514;13.438;2023-05-19T08:23:40;102215.07;;;20.82;32.42
38452;BME280;24231;52.514;13.438;2023-05-19T08:26:07;102222.15;;;19.76;34.03
38452;BME280;24231;52.514;13.438;2023-05-19T08:28:35;102219.06;;;21.07;32.02
38452;BME280;24231;52.514;13.438;2023-05-19T08:31:02;102225.59;;;20.82;32.50
38452;BME280;24231;52.514;13.438;2023-05-19T08:33:29;102230.48;;;21.08;31.65
38452;BME280;24231;52.514;13.438;2023-05-19T08:35:56;102226.35;;;20.13;32.10
38452;BME280;24231;52.514;13.438;2023-05-19T08:38:24;102229.16;;;20.43;31.94
38452;BME280;24231;52.514;13.438;2023-05-19T08:40:51;102224.52;;;20.07;32.43
38452;BME280;24231;52.514;13.438;2023-05-19T08:43:19;102219.16;;;19.58;33.20
38452;BME280;24231;52.514;13.438;2023-05-19T08:45:46;102226.16;;;20.54;31.88
38452;BME280;24231;52.514;13.438;2023-05-19T08:48:16;102220.80;;;20.20;31.64
38452;BME280;24231;52.514;13.438;2023-05-19T08:50:50;102224.91;;;19.22;33.46
38452;BME280;24231;52.514;13.438;2023-05-19T08:53:26;102218.91;;;18.81;33.45
38452;BME280;24231;52.514;13.438;2023-05-19T08:56:03;102216.24;;;18.98;34.04
38452;BME280;24231;52.514;13.438;2023-05-19T08:58:31;102215.00;;;19.39;32.87
38452;BME280;24231;52.514;13.438;2023-05-19T09:01:00;102212.99;;;19.09;33.22
38452;BME280;24231;52.514;13.438;2023-05-19T09:03:28;102216.29;;;18.73;32.64
38452;BME280;24231;52.514;13.438;2023-05-19T09:05:55;102202.80;;;19.79;32.02
38452;BME280;24231;52.514;13.438;2023-05-19T09:08:22;102206.29;;;18.40;34.33
38452;BME280;24231;52.514;13.438;2023-05-19T09:10:49;102201.56;;;18.96;33.54
38452;BME280;24231;52.514;13.438;2023-05-19T09:13:16;102196.14;;;18.25;34.56
38452;BME280;24231;52.514;13.438;2023-05-19T09:15:43;102187.64;;;19.72;32.47
38452;BME280;24231;52.514;13.438;2023-05-19T09:18:12;102197.10;;;18.77;33.35
38452;BME280;24231;52.514;13.438;2023-05-19T09:20:41;102185.73;;;19.16;32.95
38452;BME280;24231;52.514;13.438;2023-05-19T09:23:12;102177.82;;;19.40;32.04
38452;BME280;24231;52.514;13.438;2023-05-19T09:25:46;102184.87;;;18.33;33.64
38452;BME280;24231;52.514;13.438;2023-05-19T09:28:13;102173.30;;;18.24;33.47
38452;BME280;24231;52.514;13.438;2023-05-19T09:30:40;102176.34;;;17.80;34.32
38452;BME280;24231;52.514;13.438;2023-05-19T09:33:07;102176.21;;;17.49;35.08
38452;BME280;24231;52.514;13.438;2023-05-19T09:35:34;102187.79;;;18.47;33.18
38452;BME280;24231;52.514;13.438;2023-05-19T09:38:01;102178.10;;;18.00;33.59
38452;BME280;24231;52.514;13.438;2023-05-19T09:40:29;102178.15;;;17.95;33.27
38452;BME280;24231;52.514;13.438;2023-05-19T09:42:58;102173.69;;;18.57;32.66
38452;BME280;24231;52.514;13.438;2023-05-19T09:45:27;102161.84;;;18.09;33.00
38452;BME280;24231;52.514;13.438;2023-05-19T09:47:54;102167.36;;;19.10;31.85
38452;BME280;24231;52.514;13.438;2023-05-19T09:50:21;102172.90;;;19.41;31.12
38452;BME280;24231;52.514;13.438;2023-05-19T09:52:49;102176.96;;;18.65;33.09
38452;BME280;24231;52.514;13.438;2023-05-19T09:55:16;102167.49;;;19.70;31.03
38452;BME280;24231;52.514;13.438;2023-05-19T09:57:44;102164.22;;;19.81;30.59
38452;BME280;24231;52.514;13.438;2023-05-19T10:00:12;102159.43;;;18.47;33.23
38452;BME280;24231;52.514;13.438;2023-05-19T10:02:41;102160.75;;;18.47;32.83
38452;BME280;24231;52.514;13.438;2023-05-19T10:05:11;102155.90;;;18.81;32.90
38452;BME280;24231;52.514;13.438;2023-05-19T10:07:39;102158.21;;;18.64;32.87
38452;BME280;24231;52.514;13.438;2023-05-19T10:10:10;102141.19;;;18.99;31.70
38452;BME280;24231;52.514;13.438;2023-05-19T10:12:38;102148.24;;;18.92;31.95
38452;BME280;24231;52.514;13.438;2023-05-19T10:15:09;102144.76;;;18.88;31.80
38452;BME280;24231;52.514;13.438;2023-05-19T10:17:37;102145.03;;;19.15;31.57
38452;BME280;24231;52.514;13.438;2023-05-19T10:20:09;102155.47;;;18.21;32.25
38452;BME280;24231;52.514;13.438;2023-05-19T10:22:37;102139.01;;;19.44;30.95
38452;BME280;24231;52.514;13.438;2023-05-19T10:25:06;102150.52;;;18.51;32.16
38452;BME280;24231;52.514;13.438;2023-05-19T10:27:36;102158.45;;;18.66;32.42
38452;BME280;24231;52.514;13.438;2023-05-19T10:30:09;102146.19;;;18.78;32.32
38452;BME280;24231;52.514;13.438;2023-05-19T10:32:39;102140.53;;;18.39;32.01
38452;BME280;24231;52.514;13.438;2023-05-19T10:35:21;102146.41;;;19.08;31.89
38452;BME280;24231;52.514;13.438;2023-05-19T10:37:57;102133.18;;;19.33;31.03
38452;BME280;24231;52.514;13.438;2023-05-19T10:40:36;102147.72;;;18.75;31.65
38452;BME280;24231;52.514;13.438;2023-05-19T10:43:24;102145.98;;;18.20;32.04
38452;BME280;24231;52.514;13.438;2023-05-19T10:45:52;102132.26;;;17.35;34.08
38452;BME280;24231;52.514;13.438;2023-05-19T10:48:20;102133.63;;;18.25;32.40
38452;BME280;24231;52.514;13.438;2023-05-19T10:50:51;102148.68;;;17.90;33.06
38452;BME280;24231;52.514;13.438;2023-05-19T10:53:19;102142.07;;;17.96;33.35
38452;BME280;24231;52.514;13.438;2023-05-19T10:55:49;102139.61;;;17.49;34.36
38452;BME280;24231;52.514;13.438;2023-05-19T11:03:22;102120.56;;;18.29;32.99
38452;BME280;24231;52.514;13.438;2023-05-19T11:05:49;102118.68;;;18.35;32.48
38452;BME280;24231;52.514;13.438;2023-05-19T11:08:30;102117.56;;;17.75;33.49
38452;BME280;24231;52.514;13.438;2023-05-19T11:13:03;102118.96;;;17.98;34.30
38452;BME280;24231;52.514;13.438;2023-05-19T11:15:34;102123.11;;;17.85;33.56
38452;BME280;24231;52.514;13.438;2023-05-19T11:18:02;102151.87;;;17.49;33.29
38452;BME280;24231;52.514;13.438;2023-05-19T11:20:30;102136.46;;;17.14;33.93
38452;BME280;24231;52.514;13.438;2023-05-19T11:23:05;102131.31;;;17.75;33.23
38452;BME280;24231;52.514;13.438;2023-05-19T11:26:15;102136.68;;;17.32;34.33
38452;BME280;24231;52.514;13.438;2023-05-19T11:28:42;102117.64;;;18.06;32.79
38452;BME280;24231;52.514;13.438;2023-05-19T11:31:10;102115.12;;;17.65;33.06
38452;BME280;24231;52.514;13.438;2023-05-19T11:33:37;102108.13;;;18.27;32.47
38452;BME280;24231;52.514;13.438;2023-05-19T11:36:05;102114.92;;;18.03;32.74
38452;BME280;24231;52.514;13.438;2023-05-19T11:38:34;102117.36;;;17.30;34.27
38452;BME280;24231;52.514;13.438;2023-05-19T11:41:03;102106.07;;;17.33;34.66
38452;BME280;24231;52.514;13.438;2023-05-19T11:43:30;102109.15;;;17.18;35.03
38452;BME280;24231;52.514;13.438;2023-05-19T11:45:57;102107.17;;;17.44;34.20
38452;BME280;24231;52.514;13.438;2023-05-19T11:48:25;102102.35;;;17.03;34.72
38452;BME280;24231;52.514;13.438;2023-05-19T11:50:52;102110.13;;;17.56;34.08
38452;BME280;24231;52.514;13.438;2023-05-19T11:53:19;102099.22;;;17.14;34.64
38452;BME280;24231;52.514;13.438;2023-05-19T11:55:47;102099.81;;;17.16;34.98
38452;BME280;24231;52.514;13.438;2023-05-19T11:58:15;102104.01;;;18.14;33.60
38452;BME280;24231;52.514;13.438;2023-05-19T12:00:43;102103.28;;;17.65;33.39
38452;BME280;24231;52.514;13.438;2023-05-19T12:03:10;102105.02;;;17.76;34.00
38452;BME280;24231;52.514;13.438;2023-05-19T12:05:41;102111.38;;;17.96;33.27
38452;BME280;24231;52.514;13.438;2023-05-19T12:08:19;102102.32;;;18.04;33.01
38452;BME280;24231;52.514;13.438;2023-05-19T12:10:47;102103.18;;;17.38;33.60
38452;BME280;24231;52.514;13.438;2023-05-19T12:13:14;102100.04;;;17.03;34.10
38452;BME280;24231;52.514;13.438;2023-05-19T12:15:41;102100.80;;;17.30;33.56
38452;BME280;24231;52.514;13.438;2023-05-19T12:18:09;102104.26;;;17.50;33.53
38452;BME280;24231;52.514;13.438;2023-05-19T12:20:36;102102.81;;;17.00;34.28
38452;BME280;24231;52.514;13.438;2023-05-19T12:23:04;102103.95;;;17.25;34.06
38452;BME280;24231;52.514;13.438;2023-05-19T12:25:31;102089.63;;;17.71;33.19
38452;BME280;24231;52.514;13.438;2023-05-19T12:27:59;102100.44;;;17.68;33.45
38452;BME280;24231;52.514;13.438;2023-05-19T12:30:27;102097.31;;;17.95;33.11
38452;BME280;24231;52.514;13.438;2023-05-19T12:32:55;102097.75;;;17.43;33.69
38452;BME280;24231;52.514;13.438;2023-05-19T12:35:25;102092.71;;;17.40;34.32
38452;BME280;24231;52.514;13.438;2023-05-19T12:37:53;102086.23;;;17.71;34.10
38452;BME280;24231;52.514;13.438;2023-05-19T12:40:20;102086.87;;;17.42;34.42
38452;BME280;24231;52.514;13.438;2023-05-19T12:42:48;102081.28;;;17.51;34.10
38452;BME280;24231;52.514;13.438;2023-05-19T12:45:19;102088.44;;;17.64;34.10
38452;BME280;24231;52.514;13.438;2023-05-19T12:47:48;102085.24;;;17.65;34.19
38452;BME280;24231;52.514;13.438;2023-05-19T12:50:15;102075.71;;;17.72;33.93
38452;BME280;24231;52.514;13.438;2023-05-19T12:52:44;102090.02;;;17.61;34.90
38452;BME280;24231;52.514;13.438;2023-05-19T12:55:12;102078.72;;;17.73;34.60